createdAt,value
2023-02-26T00:00:28.756Z,77.17
2023-02-26T00:01:28.532Z,77.17
2023-02-26T00:02:28.841Z,77.17
2023-02-26T00:03:28.575Z,77.48
2023-02-26T00:04:28.722Z,77.80
2023-02-26T00:05:28.693Z,77.80
2023-02-26T00:06:29.157Z,78.11
2023-02-26T00:07:28.485Z,78.33
2023-02-26T00:08:28.552Z,78.33
2023-02-26T00:09:28.498Z,78.11
2023-02-26T00:10:28.478Z,77.91
2023-02-26T00:11:28.508Z,78.11
2023-02-26T00:12:28.452Z,78.53
2023-02-26T00:13:28.524Z,78.85
2023-02-26T00:14:28.402Z,78.67
2023-02-26T00:15:28.578Z,79.10
2023-02-26T00:16:28.467Z,79.52
2023-02-26T00:17:28.569Z,79.93
2023-02-26T00:18:28.388Z,79.62
2023-02-26T00:19:28.381Z,79.10
2023-02-26T00:20:28.317Z,78.99
2023-02-26T00:21:28.389Z,79.10
2023-02-26T00:22:28.313Z,79.41
2023-02-26T00:23:28.402Z,79.62
2023-02-26T00:24:28.317Z,79.52
2023-02-26T00:25:28.652Z,79.66
2023-02-26T00:26:28.689Z,79.72
2023-02-26T00:27:28.341Z,79.76
2023-02-26T00:28:28.247Z,79.76
2023-02-26T00:29:28.228Z,80.08
2023-02-26T00:30:28.199Z,80.08
2023-02-26T00:31:28.283Z,80.60
2023-02-26T00:32:28.927Z,80.71
2023-02-26T00:33:28.258Z,80.71
2023-02-26T00:34:28.185Z,80.91
2023-02-26T00:35:28.340Z,81.65
2023-02-26T00:36:28.680Z,82.28
2023-02-26T00:37:28.174Z,81.86
2023-02-26T00:38:28.102Z,81.86
2023-02-26T00:39:28.094Z,82.28
2023-02-26T00:40:28.124Z,81.65
2023-02-26T00:41:28.270Z,81.65
2023-02-26T00:42:28.036Z,81.96
2023-02-26T00:43:28.121Z,82.14
2023-02-26T00:44:28.077Z,82.35
2023-02-26T00:45:28.026Z,81.82
2023-02-26T00:46:28.298Z,82.14
2023-02-26T00:47:28.140Z,82.24
2023-02-26T00:48:27.967Z,82.35
2023-02-26T00:49:28.072Z,82.56
2023-02-26T00:50:27.986Z,82.14
2023-02-26T00:51:28.072Z,81.54
2023-02-26T00:52:28.104Z,81.30
2023-02-26T00:53:27.926Z,81.72
2023-02-26T00:54:28.115Z,81.61
2023-02-26T00:55:29.434Z,81.72
2023-02-26T00:56:27.917Z,81.30
2023-02-26T00:57:27.868Z,81.20
2023-02-26T00:58:27.993Z,81.61
2023-02-26T00:59:27.839Z,81.82
2023-02-26T01:00:27.946Z,81.09
2023-02-26T01:01:27.830Z,80.98
2023-02-26T01:02:28.028Z,81.30
2023-02-26T01:03:27.754Z,81.09
2023-02-26T01:04:27.978Z,80.46
2023-02-26T01:05:27.743Z,80.04
2023-02-26T01:06:27.875Z,80.04
2023-02-26T01:07:27.709Z,79.93
2023-02-26T01:08:27.863Z,80.46
2023-02-26T01:09:27.791Z,80.63
2023-02-26T01:10:27.813Z,80.42
2023-02-26T01:11:27.666Z,80.11
2023-02-26T01:12:27.831Z,79.69
2023-02-26T01:13:27.862Z,79.69
2023-02-26T01:14:27.687Z,79.69
2023-02-26T01:15:27.844Z,80.11
2023-02-26T01:16:28.069Z,79.69
2023-02-26T01:17:27.645Z,79.34
2023-02-26T01:18:27.722Z,78.92
2023-02-26T01:19:27.563Z,79.02
2023-02-26T01:20:27.685Z,78.92
2023-02-26T01:21:27.582Z,79.02
2023-02-26T01:22:27.576Z,79.23
2023-02-26T01:23:27.559Z,79.34
2023-02-26T01:24:27.578Z,79.23
2023-02-26T01:25:27.512Z,79.86
2023-02-26T01:26:28.078Z,79.97
2023-02-26T01:27:27.522Z,79.34
2023-02-26T01:28:27.707Z,79.02
2023-02-26T01:29:27.475Z,79.65
2023-02-26T01:30:27.536Z,79.23
2023-02-26T01:31:27.531Z,78.57
2023-02-26T01:32:27.543Z,78.92
2023-02-26T01:33:27.463Z,78.57
2023-02-26T01:34:27.472Z,78.78
2023-02-26T01:35:27.441Z,79.51
2023-02-26T01:36:27.771Z,78.78
2023-02-26T01:37:27.385Z,78.46
2023-02-26T01:38:27.393Z,78.88
2023-02-26T01:39:27.567Z,79.51
2023-02-26T01:40:27.326Z,79.72
2023-02-26T01:41:27.522Z,78.99
2023-02-26T01:42:27.302Z,78.25
2023-02-26T01:43:27.401Z,77.52
2023-02-26T01:44:27.363Z,77.73
2023-02-26T01:45:27.264Z,77.97
2023-02-26T01:46:27.443Z,78.29
2023-02-26T01:47:27.397Z,78.92
2023-02-26T01:48:27.358Z,79.13
2023-02-26T01:49:27.224Z,78.81
2023-02-26T01:50:27.370Z,78.50
2023-02-26T01:51:27.184Z,78.39
2023-02-26T01:52:27.212Z,78.29
2023-02-26T01:53:27.179Z,78.29
2023-02-26T01:54:27.228Z,78.39
2023-02-26T01:55:27.168Z,78.92
2023-02-26T01:56:27.669Z,78.71
2023-02-26T01:57:27.128Z,78.71
2023-02-26T01:58:27.109Z,78.92
2023-02-26T01:59:27.086Z,79.23
2023-02-26T02:00:27.208Z,79.75
2023-02-26T02:01:27.067Z,79.97
2023-02-26T02:02:27.269Z,80.07
2023-02-26T02:03:27.194Z,80.28
2023-02-26T02:04:27.112Z,79.86
2023-02-26T02:05:27.064Z,79.55
2023-02-26T02:06:27.402Z,80.18
2023-02-26T02:07:27.005Z,80.07
2023-02-26T02:08:27.000Z,79.55
2023-02-26T02:09:26.979Z,79.55
2023-02-26T02:10:27.031Z,79.65
2023-02-26T02:11:26.943Z,79.23
2023-02-26T02:12:27.012Z,78.92
2023-02-26T02:13:26.906Z,78.71
2023-02-26T02:14:26.931Z,79.44
2023-02-26T02:15:26.924Z,78.92
2023-02-26T02:16:27.334Z,79.02
2023-02-26T02:17:26.863Z,79.23
2023-02-26T02:18:27.072Z,78.71
2023-02-26T02:19:26.869Z,78.81
2023-02-26T02:20:26.897Z,79.16
2023-02-26T02:21:26.810Z,78.92
2023-02-26T02:22:26.864Z,79.13
2023-02-26T02:23:26.781Z,79.06
2023-02-26T02:24:26.882Z,79.48
2023-02-26T02:25:26.768Z,79.38
2023-02-26T02:26:27.500Z,79.58
2023-02-26T02:27:26.754Z,78.96
2023-02-26T02:28:26.928Z,78.33
2023-02-26T02:29:26.708Z,77.91
2023-02-26T02:30:26.834Z,77.80
2023-02-26T02:31:26.841Z,78.01
2023-02-26T02:32:26.827Z,78.43
2023-02-26T02:33:26.692Z,77.91
2023-02-26T02:34:26.751Z,77.91
2023-02-26T02:35:26.664Z,78.64
2023-02-26T02:36:27.125Z,78.74
2023-02-26T02:37:26.640Z,78.96
2023-02-26T02:38:26.688Z,79.16
2023-02-26T02:39:26.581Z,79.16
2023-02-26T02:40:26.692Z,78.96
2023-02-26T02:41:26.795Z,78.85
2023-02-26T02:42:26.520Z,78.64
2023-02-26T02:43:26.624Z,78.74
2023-02-26T02:44:26.503Z,79.06
2023-02-26T02:45:26.680Z,79.58
2023-02-26T02:46:26.763Z,79.38
2023-02-26T02:47:26.652Z,79.27
2023-02-26T02:48:26.509Z,79.16
2023-02-26T02:49:26.669Z,79.06
2023-02-26T02:50:26.479Z,79.06
2023-02-26T02:51:26.528Z,78.33
2023-02-26T02:52:27.071Z,78.11
2023-02-26T02:53:26.488Z,78.64
2023-02-26T02:54:26.435Z,78.74
2023-02-26T02:55:26.501Z,78.64
2023-02-26T02:56:26.637Z,78.22
2023-02-26T02:57:26.503Z,78.11
2023-02-26T02:58:26.366Z,78.22
2023-02-26T02:59:26.437Z,78.53
2023-02-26T03:00:26.359Z,78.74
2023-02-26T03:01:26.486Z,78.33
2023-02-26T03:02:26.383Z,78.64
2023-02-26T03:03:26.335Z,79.27
2023-02-26T03:04:26.352Z,78.85
2023-02-26T03:05:26.272Z,78.64
2023-02-26T03:06:26.355Z,77.91
2023-02-26T03:07:26.349Z,77.70
2023-02-26T03:08:26.247Z,77.80
2023-02-26T03:09:26.303Z,77.28
2023-02-26T03:10:26.190Z,77.70
2023-02-26T03:11:26.405Z,77.38
2023-02-26T03:12:26.174Z,76.79
2023-02-26T03:13:26.279Z,76.79
2023-02-26T03:14:26.171Z,76.68
2023-02-26T03:15:26.245Z,76.93
2023-02-26T03:16:26.537Z,76.82
2023-02-26T03:17:26.247Z,76.82
2023-02-26T03:18:26.109Z,77.14
2023-02-26T03:19:26.274Z,77.45
2023-02-26T03:20:26.060Z,77.80
2023-02-26T03:21:26.290Z,77.59
2023-02-26T03:22:26.033Z,78.53
2023-02-26T03:23:26.145Z,78.75
2023-02-26T03:24:26.020Z,77.80
2023-02-26T03:25:26.167Z,77.28
2023-02-26T03:26:26.277Z,77.17
2023-02-26T03:27:26.120Z,77.28
2023-02-26T03:28:26.113Z,77.00
2023-02-26T03:29:26.013Z,77.10
2023-02-26T03:30:26.129Z,77.21
2023-02-26T03:31:26.122Z,77.52
2023-02-26T03:32:26.108Z,77.00
2023-02-26T03:33:26.021Z,77.00
2023-02-26T03:34:25.894Z,77.66
2023-02-26T03:35:25.963Z,77.66
2023-02-26T03:36:26.231Z,77.56
2023-02-26T03:37:26.104Z,77.56
2023-02-26T03:38:25.869Z,77.35
2023-02-26T03:39:25.969Z,77.45
2023-02-26T03:40:25.824Z,77.56
2023-02-26T03:41:25.920Z,77.45
2023-02-26T03:42:25.810Z,77.66
2023-02-26T03:43:25.932Z,77.87
2023-02-26T03:44:25.800Z,78.08
2023-02-26T03:45:25.937Z,77.91
2023-02-26T03:46:26.177Z,78.22
2023-02-26T03:47:25.852Z,78.85
2023-02-26T03:48:25.723Z,79.06
2023-02-26T03:49:25.869Z,78.85
2023-02-26T03:50:25.722Z,78.96
2023-02-26T03:51:25.794Z,78.96
2023-02-26T03:52:25.663Z,78.85
2023-02-26T03:53:25.796Z,78.64
2023-02-26T03:54:25.803Z,78.78
2023-02-26T03:55:25.675Z,79.21
2023-02-26T03:56:26.147Z,79.52
2023-02-26T03:57:25.642Z,79.91
2023-02-26T03:58:25.813Z,79.38
2023-02-26T03:59:25.737Z,79.17
2023-02-26T04:00:25.732Z,79.17
2023-02-26T04:01:25.708Z,79.10
2023-02-26T04:02:25.578Z,79.10
2023-02-26T04:03:25.661Z,79.21
2023-02-26T04:04:25.620Z,79.31
2023-02-26T04:05:25.679Z,79.63
2023-02-26T04:06:25.959Z,81.20
2023-02-26T04:07:25.641Z,81.20
2023-02-26T04:08:25.487Z,79.59
2023-02-26T04:09:25.599Z,78.75
2023-02-26T04:10:25.457Z,78.16
2023-02-26T04:11:25.670Z,78.16
2023-02-26T04:12:25.416Z,78.36
2023-02-26T04:13:25.625Z,78.78
2023-02-26T04:14:25.434Z,79.41
2023-02-26T04:15:25.541Z,79.10
2023-02-26T04:16:25.740Z,79.00
2023-02-26T04:17:25.665Z,79.31
2023-02-26T04:18:25.374Z,78.78
2023-02-26T04:19:25.462Z,78.78
2023-02-26T04:20:25.316Z,79.73
2023-02-26T04:21:25.425Z,79.24
2023-02-26T04:22:25.327Z,79.03
2023-02-26T04:23:25.393Z,79.45
2023-02-26T04:24:25.274Z,80.29
2023-02-26T04:25:25.403Z,80.61
2023-02-26T04:26:25.607Z,81.07
2023-02-26T04:27:25.372Z,80.75
2023-02-26T04:28:25.252Z,81.07
2023-02-26T04:29:25.331Z,81.70
2023-02-26T04:30:25.267Z,81.70
2023-02-26T04:31:25.438Z,81.59
2023-02-26T04:32:25.227Z,81.17
2023-02-26T04:33:25.301Z,81.17
2023-02-26T04:34:25.157Z,80.96
2023-02-26T04:35:25.263Z,80.75
2023-02-26T04:36:25.544Z,80.75
2023-02-26T04:37:25.328Z,81.49
2023-02-26T04:38:25.116Z,82.12
2023-02-26T04:39:25.203Z,82.01
2023-02-26T04:40:25.068Z,81.38
2023-02-26T04:41:25.216Z,81.91
2023-02-26T04:42:25.045Z,81.49
2023-02-26T04:43:25.175Z,81.17
2023-02-26T04:44:25.040Z,81.38
2023-02-26T04:45:25.227Z,81.49
2023-02-26T04:46:25.659Z,81.38
2023-02-26T04:47:25.005Z,81.38
2023-02-26T04:48:25.062Z,81.17
2023-02-26T04:49:24.990Z,81.28
2023-02-26T04:50:25.056Z,81.38
2023-02-26T04:51:25.118Z,81.81
2023-02-26T04:52:25.011Z,82.12
2023-02-26T04:53:25.134Z,82.54
2023-02-26T04:54:24.916Z,82.92
2023-02-26T04:56:41.323Z,81.77
2023-02-26T04:57:42.190Z,82.08
2023-02-26T04:58:42.307Z,82.61
2023-02-26T04:59:42.193Z,81.73
2023-02-26T05:00:42.228Z,81.10
2023-02-26T05:01:42.320Z,80.89
2023-02-26T05:02:42.112Z,80.89
2023-02-26T05:03:42.303Z,80.57
2023-02-26T05:04:42.200Z,80.47
2023-02-26T05:05:42.217Z,80.36
2023-02-26T05:06:42.057Z,80.36
2023-02-26T05:07:42.197Z,80.68
2023-02-26T05:08:42.030Z,80.99
2023-02-26T05:09:42.107Z,80.79
2023-02-26T05:10:42.008Z,80.57
2023-02-26T05:11:42.157Z,80.47
2023-02-26T05:12:41.989Z,80.79
2023-02-26T05:13:42.127Z,80.89
2023-02-26T05:14:41.958Z,80.68
2023-02-26T05:15:42.125Z,80.79
2023-02-26T05:16:41.959Z,82.15
2023-02-26T05:17:42.036Z,82.36
2023-02-26T05:18:41.913Z,81.84
2023-02-26T05:19:43.545Z,81.38
2023-02-26T05:20:41.902Z,82.75
2023-02-26T05:21:42.098Z,82.01
2023-02-26T05:22:42.069Z,81.38
2023-02-26T05:23:41.883Z,82.29
2023-02-26T05:24:41.919Z,81.55
2023-02-26T05:25:41.844Z,81.65
2023-02-26T05:26:41.938Z,80.92
2023-02-26T05:27:41.985Z,80.99
2023-02-26T05:28:41.800Z,81.09
2023-02-26T05:29:41.938Z,80.36
2023-02-26T05:30:41.829Z,79.62
2023-02-26T05:31:41.988Z,80.57
2023-02-26T05:32:41.757Z,80.04
2023-02-26T05:33:41.862Z,78.99
2023-02-26T05:34:41.714Z,78.89
2023-02-26T05:35:41.917Z,79.10
2023-02-26T05:36:41.719Z,78.99
2023-02-26T05:37:41.894Z,78.92
2023-02-26T05:38:41.684Z,79.13
2023-02-26T05:39:41.789Z,79.24
2023-02-26T05:40:41.637Z,79.55
2023-02-26T05:41:41.744Z,80.18
2023-02-26T05:42:41.620Z,80.50
2023-02-26T05:43:41.764Z,80.92
2023-02-26T05:44:41.597Z,81.16
2023-02-26T05:45:41.734Z,81.06
2023-02-26T05:46:41.573Z,81.16
2023-02-26T05:47:41.799Z,81.16
2023-02-26T05:48:41.949Z,81.16
2023-02-26T05:49:41.716Z,81.06
2023-02-26T05:50:41.562Z,81.59
2023-02-26T05:51:41.685Z,81.48
2023-02-26T05:52:41.492Z,81.16
2023-02-26T05:53:41.592Z,80.96
2023-02-26T05:54:41.475Z,80.96
2023-02-26T05:55:41.651Z,80.75
2023-02-26T05:56:41.452Z,81.16
2023-02-26T05:57:41.613Z,81.16
2023-02-26T05:58:41.442Z,81.27
2023-02-26T05:59:41.629Z,81.16
2023-02-26T06:00:41.402Z,81.16
2023-02-26T06:01:41.584Z,81.16
2023-02-26T06:02:41.419Z,81.27
2023-02-26T06:03:41.497Z,81.16
2023-02-26T06:04:41.366Z,81.27
2023-02-26T06:05:41.569Z,81.38
2023-02-26T06:06:41.328Z,81.38
2023-02-26T06:07:41.475Z,82.22
2023-02-26T06:08:41.335Z,81.80
2023-02-26T06:09:41.387Z,81.70
2023-02-26T06:10:41.281Z,81.27
2023-02-26T06:11:41.505Z,80.96
2023-02-26T06:12:41.255Z,80.85
2023-02-26T06:13:41.395Z,81.16
2023-02-26T06:14:41.305Z,81.27
2023-02-26T06:15:41.269Z,81.48
2023-02-26T06:16:41.368Z,81.59
2023-02-26T06:17:41.245Z,81.90
2023-02-26T06:18:41.336Z,82.85
2023-02-26T06:19:41.409Z,82.32
2023-02-26T06:20:41.170Z,81.87
2023-02-26T06:21:41.307Z,81.65
2023-02-26T06:22:41.140Z,81.87
2023-02-26T06:23:41.318Z,81.97
2023-02-26T06:24:41.136Z,81.97
2023-02-26T06:25:41.305Z,81.97
2023-02-26T06:26:42.052Z,81.97
2023-02-26T06:27:41.314Z,81.97
2023-02-26T06:28:41.070Z,82.29
2023-02-26T06:29:41.176Z,82.39
2023-02-26T06:30:41.134Z,82.18
2023-02-26T06:31:41.379Z,81.55
2023-02-26T06:32:41.085Z,81.55
2023-02-26T06:33:41.155Z,81.76
2023-02-26T06:34:41.027Z,81.76
2023-02-26T06:35:43.536Z,81.76
2023-02-26T06:36:40.960Z,81.76
2023-02-26T06:37:41.109Z,82.29
2023-02-26T06:38:41.061Z,82.29
2023-02-26T06:39:41.232Z,82.60
2023-02-26T06:40:41.207Z,82.39
2023-02-26T06:41:40.942Z,82.29
2023-02-26T06:42:41.147Z,82.29
2023-02-26T06:43:41.026Z,82.50
2023-02-26T06:44:40.914Z,81.93
2023-02-26T06:45:40.992Z,81.09
2023-02-26T06:46:40.871Z,81.09
2023-02-26T06:47:41.049Z,81.62
2023-02-26T06:48:40.828Z,82.14
2023-02-26T06:49:41.140Z,82.78
2023-02-26T06:50:40.793Z,80.95
2023-02-26T06:51:40.877Z,80.32
2023-02-26T06:52:40.785Z,80.43
2023-02-26T06:53:40.917Z,81.05
2023-02-26T06:54:40.756Z,80.95
2023-02-26T06:55:40.958Z,80.43
2023-02-26T06:56:40.723Z,80.11
2023-02-26T06:57:40.936Z,79.80
2023-02-26T06:58:40.725Z,79.52
2023-02-26T06:59:41.087Z,79.94
2023-02-26T07:00:41.362Z,80.04
2023-02-26T07:01:41.552Z,80.26
2023-02-26T07:02:40.698Z,80.99
2023-02-26T07:03:40.884Z,81.20
2023-02-26T07:04:40.637Z,80.99
2023-02-26T07:05:40.876Z,80.64
2023-02-26T07:06:41.056Z,80.64
2023-02-26T07:07:40.615Z,81.69
2023-02-26T07:08:40.779Z,81.27
2023-02-26T07:09:40.583Z,80.71
2023-02-26T07:10:40.801Z,80.39
2023-02-26T07:11:40.667Z,80.71
2023-02-26T07:12:40.546Z,80.49
2023-02-26T07:13:40.620Z,79.86
2023-02-26T07:14:40.504Z,79.38
2023-02-26T07:15:40.630Z,79.80
2023-02-26T07:16:40.528Z,79.90
2023-02-26T07:17:40.602Z,79.90
2023-02-26T07:18:40.506Z,80.11
2023-02-26T07:19:40.566Z,80.22
2023-02-26T07:20:40.424Z,80.22
2023-02-26T07:21:40.575Z,80.11
2023-02-26T07:22:40.434Z,79.90
2023-02-26T07:23:40.599Z,80.11
2023-02-26T07:24:40.380Z,80.43
2023-02-26T07:25:40.611Z,80.32
2023-02-26T07:26:40.403Z,80.43
2023-02-26T07:27:43.373Z,80.53
2023-02-26T07:28:40.401Z,80.43
2023-02-26T07:29:40.405Z,81.23
2023-02-26T07:30:40.396Z,80.81
2023-02-26T07:31:40.549Z,80.49
2023-02-26T07:32:40.500Z,80.08
2023-02-26T07:33:40.270Z,80.18
2023-02-26T07:34:40.502Z,79.86
2023-02-26T07:35:40.302Z,79.97
2023-02-26T07:36:40.504Z,80.60
2023-02-26T07:37:40.233Z,80.91
2023-02-26T07:38:40.339Z,81.23
2023-02-26T07:39:40.191Z,80.57
2023-02-26T07:40:40.292Z,80.77
2023-02-26T07:41:40.240Z,80.77
2023-02-26T07:42:40.427Z,80.35
2023-02-26T07:43:40.166Z,79.72
2023-02-26T07:44:40.219Z,79.83
2023-02-26T07:45:40.125Z,79.48
2023-02-26T07:46:40.253Z,79.27
2023-02-26T07:47:40.142Z,79.06
2023-02-26T07:48:40.326Z,78.96
2023-02-26T07:49:40.087Z,78.39
2023-02-26T07:50:40.266Z,78.29
2023-02-26T07:51:40.043Z,78.50
2023-02-26T07:52:40.285Z,78.29
2023-02-26T07:53:40.105Z,77.62
2023-02-26T07:54:40.024Z,76.47
2023-02-26T07:55:40.179Z,76.79
2023-02-26T07:56:40.022Z,76.65
2023-02-26T07:57:40.175Z,76.23
2023-02-26T07:58:40.273Z,75.43
2023-02-26T07:59:39.962Z,76.16
2023-02-26T08:00:40.037Z,76.65
2023-02-26T08:01:39.968Z,77.59
2023-02-26T08:02:40.146Z,76.72
2023-02-26T08:03:40.622Z,75.18
2023-02-26T08:04:39.909Z,74.76
2023-02-26T08:05:41.004Z,75.81
2023-02-26T08:06:39.940Z,74.90
2023-02-26T08:07:39.955Z,75.53
2023-02-26T08:08:39.955Z,76.16
2023-02-26T08:09:39.955Z,77.52
2023-02-26T08:10:41.957Z,77.10
2023-02-26T08:11:39.984Z,77.83
2023-02-26T08:12:39.836Z,77.42
2023-02-26T08:13:39.915Z,76.02
2023-02-26T08:14:39.812Z,75.29
2023-02-26T08:15:39.988Z,75.95
2023-02-26T08:16:39.785Z,75.32
2023-02-26T08:17:39.921Z,75.11
2023-02-26T08:18:39.808Z,75.88
2023-02-26T08:19:39.932Z,76.61
2023-02-26T08:20:39.782Z,76.82
2023-02-26T08:21:39.740Z,77.66
2023-02-26T08:22:39.698Z,77.66
2023-02-26T08:23:39.781Z,77.66
2023-02-26T08:24:39.844Z,78.15
2023-02-26T08:25:39.661Z,78.46
2023-02-26T08:26:39.875Z,78.88
2023-02-26T08:27:39.614Z,79.20
2023-02-26T08:28:39.836Z,77.94
2023-02-26T08:29:39.579Z,78.36
2023-02-26T08:30:39.874Z,78.57
2023-02-26T08:31:39.636Z,79.30
2023-02-26T08:32:39.744Z,79.41
2023-02-26T08:33:39.521Z,80.04
2023-02-26T08:34:39.678Z,80.77
2023-02-26T08:35:39.512Z,79.72
2023-02-26T08:36:39.713Z,80.70
2023-02-26T08:37:39.590Z,82.17
2023-02-26T08:38:39.620Z,82.38
2023-02-26T08:39:39.450Z,81.12
2023-02-26T08:40:39.611Z,80.70
2023-02-26T08:41:39.472Z,81.54
2023-02-26T08:42:39.615Z,82.06
2023-02-26T08:43:39.422Z,80.70
2023-02-26T08:44:39.551Z,80.60
2023-02-26T08:45:39.420Z,80.80
2023-02-26T08:46:39.490Z,81.75
2023-02-26T08:47:42.422Z,82.79
2023-02-26T08:48:39.384Z,82.03
2023-02-26T08:49:39.455Z,82.23
2023-02-26T08:50:39.505Z,81.67
2023-02-26T08:51:39.331Z,81.78
2023-02-26T08:52:39.549Z,80.27
2023-02-26T08:53:39.281Z,79.54
2023-02-26T08:54:39.452Z,79.02
2023-02-26T08:55:39.284Z,78.18
2023-02-26T08:56:39.570Z,77.80
2023-02-26T08:57:39.302Z,78.43
2023-02-26T08:58:39.409Z,78.53
2023-02-26T08:59:39.259Z,78.25
2023-02-26T09:00:39.311Z,78.46
2023-02-26T09:01:39.244Z,79.72
2023-02-26T09:02:39.501Z,79.41
2023-02-26T09:03:39.889Z,79.68
2023-02-26T09:04:39.455Z,79.75
2023-02-26T09:05:39.231Z,77.10
2023-02-26T09:06:39.390Z,74.07
2023-02-26T09:07:39.125Z,74.38
2023-02-26T09:08:39.181Z,75.29
2023-02-26T09:09:39.125Z,74.35
2023-02-26T09:10:41.077Z,73.72
2023-02-26T09:11:39.186Z,74.45
2023-02-26T09:12:39.076Z,74.90
2023-02-26T09:13:39.241Z,74.90
2023-02-26T09:14:39.083Z,75.35
2023-02-26T09:15:39.135Z,75.18
2023-02-26T09:16:39.080Z,76.33
2023-02-26T09:17:39.140Z,76.75
2023-02-26T09:18:39.041Z,76.75
2023-02-26T09:19:39.024Z,76.54
2023-02-26T09:20:38.986Z,75.53
2023-02-26T09:21:39.049Z,76.37
2023-02-26T09:22:39.030Z,77.94
2023-02-26T09:23:39.117Z,78.05
2023-02-26T09:24:38.973Z,78.11
2023-02-26T09:25:39.077Z,76.75
2023-02-26T09:26:38.925Z,76.57
2023-02-26T09:27:39.126Z,75.84
2023-02-26T09:28:38.947Z,76.02
2023-02-26T09:29:39.057Z,76.33
2023-02-26T09:30:38.875Z,77.07
2023-02-26T09:31:39.129Z,75.81
2023-02-26T09:32:38.990Z,75.39
2023-02-26T09:33:39.097Z,75.08
2023-02-26T09:34:38.876Z,74.34
2023-02-26T09:35:39.001Z,75.18
2023-02-26T09:36:38.878Z,76.44
2023-02-26T09:37:38.960Z,76.75
2023-02-26T09:38:38.763Z,76.30
2023-02-26T09:39:38.797Z,75.46
2023-02-26T09:40:38.758Z,75.98
2023-02-26T09:41:38.778Z,75.46
2023-02-26T09:42:38.754Z,74.94
2023-02-26T09:43:38.933Z,74.41
2023-02-26T09:44:38.792Z,75.46
2023-02-26T09:45:38.681Z,76.09
2023-02-26T09:46:38.687Z,74.41
2023-02-26T09:47:38.773Z,73.99
2023-02-26T09:48:38.668Z,73.89
2023-02-26T09:49:38.788Z,73.37
2023-02-26T09:50:38.637Z,72.42
2023-02-26T09:51:38.668Z,73.89
2023-02-26T09:52:38.596Z,75.15
2023-02-26T09:53:38.775Z,74.21
2023-02-26T09:54:38.752Z,72.95
2023-02-26T09:55:38.670Z,73.82
2023-02-26T09:56:38.558Z,74.13
2023-02-26T09:57:38.606Z,73.50
2023-02-26T09:58:38.603Z,73.82
2023-02-26T09:59:38.571Z,73.93
2023-02-26T10:00:38.625Z,74.34
2023-02-26T10:01:38.493Z,76.02
2023-02-26T10:02:38.669Z,75.29
2023-02-26T10:03:38.466Z,75.92
2023-02-26T10:04:38.740Z,76.20
2023-02-26T10:05:38.436Z,75.57
2023-02-26T10:06:38.539Z,74.94
2023-02-26T10:07:38.474Z,75.04
2023-02-26T10:08:38.486Z,75.57
2023-02-26T10:09:38.382Z,76.09
2023-02-26T10:10:38.539Z,73.58
2023-02-26T10:11:38.370Z,73.16
2023-02-26T10:12:38.387Z,74.59
2023-02-26T10:13:48.967Z,73.23
2023-02-26T10:14:38.371Z,73.19
2023-02-26T10:15:38.343Z,73.27
2023-02-26T10:16:38.456Z,71.39
2023-02-26T10:17:38.298Z,72.08
2023-02-26T10:18:38.487Z,71.77
2023-02-26T10:19:38.313Z,70.38
2023-02-26T10:20:38.618Z,65.47
2023-02-26T10:21:38.249Z,53.87
2023-02-26T10:22:38.363Z,43.88
2023-02-26T10:23:38.228Z,37.13
2023-02-26T10:24:38.412Z,31.73
2023-02-26T10:25:38.183Z,28.91
2023-02-26T10:26:38.372Z,27.56
2023-02-26T10:27:38.184Z,28.91
2023-02-26T10:28:38.252Z,32.47
2023-02-26T10:29:38.150Z,34.83
2023-02-26T10:30:38.216Z,32.54
2023-02-26T10:31:38.160Z,34.45
2023-02-26T10:32:38.475Z,38.20
2023-02-26T10:33:38.072Z,41.57
2023-02-26T10:34:38.269Z,45.92
2023-02-26T10:35:38.031Z,49.41
2023-02-26T10:36:38.218Z,51.14
2023-02-26T10:37:38.048Z,53.88
2023-02-26T10:38:38.067Z,55.17
2023-02-26T10:39:37.987Z,57.07
2023-02-26T10:40:38.088Z,56.39
2023-02-26T10:41:38.006Z,57.48
2023-02-26T10:42:38.154Z,59.38
2023-02-26T10:43:37.962Z,61.38
2023-02-26T10:44:38.028Z,62.24
2023-02-26T10:45:38.103Z,63.60
2023-02-26T10:46:37.972Z,64.67
2023-02-26T10:47:38.053Z,65.64
2023-02-26T10:48:37.903Z,67.23
2023-02-26T10:49:37.927Z,66.92
2023-02-26T10:50:37.872Z,67.44
2023-02-26T10:51:38.053Z,67.68
2023-02-26T10:52:37.872Z,67.88
2023-02-26T10:53:40.443Z,68.65
2023-02-26T10:54:37.869Z,68.96
2023-02-26T10:55:37.978Z,69.51
2023-02-26T10:56:37.797Z,70.35
2023-02-26T10:57:38.078Z,70.80
2023-02-26T10:58:37.805Z,69.96
2023-02-26T10:59:37.816Z,71.04
2023-02-26T11:00:37.792Z,70.90
2023-02-26T11:01:37.861Z,70.90
2023-02-26T11:02:37.890Z,71.11
2023-02-26T11:03:37.886Z,70.41
2023-02-26T11:04:37.733Z,70.73
2023-02-26T11:05:37.746Z,70.62
2023-02-26T11:06:37.684Z,70.73
2023-02-26T11:07:37.847Z,70.73
2023-02-26T11:08:37.715Z,70.94
2023-02-26T11:09:37.776Z,71.77
2023-02-26T11:10:37.656Z,72.33
2023-02-26T11:11:37.783Z,73.06
2023-02-26T11:12:37.612Z,73.79
2023-02-26T11:13:37.728Z,73.90
2023-02-26T11:14:37.646Z,73.37
2023-02-26T11:15:37.734Z,73.16
2023-02-26T11:16:37.598Z,73.47
2023-02-26T11:17:37.655Z,72.99
2023-02-26T11:18:37.565Z,73.19
2023-02-26T11:19:37.680Z,73.41
2023-02-26T11:20:37.573Z,73.19
2023-02-26T11:21:37.666Z,73.41
2023-02-26T11:22:37.481Z,73.93
2023-02-26T11:23:37.648Z,73.93
2023-02-26T11:24:37.468Z,73.72
2023-02-26T11:25:37.578Z,73.51
2023-02-26T11:26:37.478Z,73.75
2023-02-26T11:27:37.544Z,73.75
2023-02-26T11:28:37.453Z,74.07
2023-02-26T11:29:37.529Z,74.24
2023-02-26T11:30:37.444Z,73.72
2023-02-26T11:31:37.611Z,74.04
2023-02-26T11:32:37.468Z,74.10
2023-02-26T11:33:37.557Z,73.86
2023-02-26T11:34:37.379Z,73.13
2023-02-26T11:35:37.554Z,73.24
2023-02-26T11:36:37.322Z,72.81
2023-02-26T11:37:37.480Z,73.34
2023-02-26T11:38:37.332Z,73.69
2023-02-26T11:39:37.821Z,73.58
2023-02-26T11:40:37.282Z,73.55
2023-02-26T11:41:37.442Z,72.75
2023-02-26T11:42:37.323Z,72.40
2023-02-26T11:43:37.362Z,73.44
2023-02-26T11:44:37.238Z,72.92
2023-02-26T11:45:37.320Z,73.65
2023-02-26T11:46:37.231Z,73.93
2023-02-26T11:47:37.398Z,73.41
2023-02-26T11:48:37.205Z,72.89
2023-02-26T11:49:37.403Z,73.52
2023-02-26T11:50:37.177Z,73.93
2023-02-26T11:51:37.355Z,73.30
2023-02-26T11:52:37.104Z,73.41
2023-02-26T11:53:37.252Z,72.78
2023-02-26T11:54:37.101Z,72.40
2023-02-26T11:55:37.239Z,72.71
2023-02-26T11:56:37.101Z,73.13
2023-02-26T11:57:37.257Z,73.34
2023-02-26T11:58:37.080Z,72.81
2023-02-26T11:59:37.057Z,73.06
2023-02-26T12:00:37.154Z,74.10
2023-02-26T12:01:37.062Z,74.18
2023-02-26T12:02:37.218Z,74.69
2023-02-26T12:03:36.998Z,73.86
2023-02-26T12:04:39.098Z,74.28
2023-02-26T12:05:37.025Z,73.86
2023-02-26T12:06:37.141Z,73.24
2023-02-26T12:07:36.986Z,72.81
2023-02-26T12:08:37.159Z,73.34
2023-02-26T12:09:36.938Z,73.75
2023-02-26T12:10:37.066Z,73.13
2023-02-26T12:11:37.001Z,73.24
2023-02-26T12:12:36.973Z,73.65
2023-02-26T12:13:36.854Z,73.96
2023-02-26T12:14:36.927Z,72.71
2023-02-26T12:15:36.882Z,72.40
2023-02-26T12:16:36.923Z,72.61
2023-02-26T12:17:36.866Z,72.85
2023-02-26T12:18:37.021Z,73.16
2023-02-26T12:19:37.087Z,73.37
2023-02-26T12:20:36.758Z,74.31
2023-02-26T12:21:36.941Z,73.86
2023-02-26T12:22:36.735Z,73.79
2023-02-26T12:23:36.914Z,73.86
2023-02-26T12:24:36.956Z,73.13
2023-02-26T12:25:36.732Z,73.13
2023-02-26T12:26:36.753Z,73.24
2023-02-26T12:27:36.714Z,73.13
2023-02-26T12:28:36.885Z,72.81
2023-02-26T12:29:36.671Z,73.44
2023-02-26T12:30:36.692Z,73.41
2023-02-26T12:31:36.823Z,72.89
2023-02-26T12:32:36.770Z,71.32
2023-02-26T12:33:36.628Z,72.81
2023-02-26T12:34:36.719Z,73.44
2023-02-26T12:35:36.586Z,73.93
2023-02-26T12:36:48.360Z,72.92
2023-02-26T12:37:36.625Z,72.92
2023-02-26T12:38:36.647Z,73.65
2023-02-26T12:39:36.554Z,74.38
2023-02-26T12:40:36.712Z,73.44
2023-02-26T12:41:36.546Z,73.20
2023-02-26T12:42:36.730Z,72.92
2023-02-26T12:43:36.567Z,72.81
2023-02-26T12:44:36.580Z,72.81
2023-02-26T12:45:36.735Z,72.50
2023-02-26T12:46:36.516Z,71.91
2023-02-26T12:47:36.566Z,72.96
2023-02-26T12:48:36.463Z,73.24
2023-02-26T12:49:36.637Z,72.19
2023-02-26T12:50:36.600Z,71.67
2023-02-26T12:51:36.393Z,72.30
2023-02-26T12:52:36.550Z,73.13
2023-02-26T12:53:36.408Z,72.71